createdAt,value
2018-11-29T00:00:10.418Z,1010.15
2018-11-29T00:00:36.530Z,1010.08
2018-11-29T00:01:02.630Z,1010.08
2018-11-29T00:01:28.732Z,1010.1
2018-11-29T00:01:54.841Z,1010.07
2018-11-29T00:02:20.951Z,1010.11
2018-11-29T00:02:47.054Z,1010.08
2018-11-29T00:03:13.166Z,1010.13
2018-11-29T00:03:39.277Z,1010.11
2018-11-29T00:04:05.412Z,1010.15
2018-11-29T00:04:31.514Z,1010.11
2018-11-29T00:04:57.625Z,1010.12
2018-11-29T00:05:23.734Z,1010.11
2018-11-29T00:05:49.832Z,1010.15
2018-11-29T00:06:15.942Z,1010.2
2018-11-29T00:06:42.048Z,1010.1
2018-11-29T00:07:08.157Z,1010.17
2018-11-29T00:07:34.256Z,1010.18
2018-11-29T00:08:00.396Z,1010.17
2018-11-29T00:08:26.563Z,1010.12
2018-11-29T00:08:52.666Z,1010.13
2018-11-29T00:09:18.803Z,1010.13
2018-11-29T00:09:44.936Z,1010.14
2018-11-29T00:10:11.041Z,1010.16
2018-11-29T00:10:37.146Z,1010.14
2018-11-29T00:11:03.256Z,1010.25
2018-11-29T00:11:29.363Z,1010.18
2018-11-29T00:11:55.465Z,1010.15
2018-11-29T00:12:21.570Z,1010.21
2018-11-29T00:12:47.706Z,1010.25
2018-11-29T00:13:13.812Z,1010.22
2018-11-29T00:13:39.915Z,1010.19
2018-11-29T00:14:06.455Z,1010.2
2018-11-29T00:14:32.567Z,1010.19
2018-11-29T00:14:58.671Z,1010.16
2018-11-29T00:15:24.775Z,1010.26
2018-11-29T00:15:50.911Z,1010.16
2018-11-29T00:16:17.018Z,1010.16
2018-11-29T00:16:43.164Z,1010.21
2018-11-29T00:17:09.294Z,1010.22
2018-11-29T00:17:35.838Z,1010.19
2018-11-29T00:18:01.943Z,1010.18
2018-11-29T00:18:28.079Z,1010.26
2018-11-29T00:18:54.185Z,1010.28
2018-11-29T00:19:20.293Z,1010.22
2018-11-29T00:19:46.398Z,1010.18
2018-11-29T00:20:12.508Z,1010.25
2018-11-29T00:20:38.646Z,1010.2
2018-11-29T00:21:04.748Z,1010.21
2018-11-29T00:21:30.850Z,1010.18
2018-11-29T00:21:56.955Z,1010.22
2018-11-29T00:22:23.057Z,1010.21
2018-11-29T00:22:49.165Z,1010.16
2018-11-29T00:23:15.269Z,1010.23
2018-11-29T00:23:41.375Z,1010.17
2018-11-29T00:24:07.486Z,1010.15
2018-11-29T00:24:33.594Z,1010.16
2018-11-29T00:24:59.709Z,1010.13
2018-11-29T00:25:25.798Z,1010.1
2018-11-29T00:25:51.905Z,1010.09
2018-11-29T00:26:18.013Z,1010.08
2018-11-29T00:26:44.122Z,1010.07
2018-11-29T00:27:10.227Z,1010.1
2018-11-29T00:27:36.335Z,1010.07
2018-11-29T00:28:02.441Z,1010.09
2018-11-29T00:28:28.547Z,1010.06
2018-11-29T00:28:54.652Z,1010.1
2018-11-29T00:29:20.762Z,1010.04
2018-11-29T00:29:46.857Z,1010.08
2018-11-29T00:30:12.970Z,1010.07
2018-11-29T00:30:39.079Z,1010.07
2018-11-29T00:31:05.188Z,1010.12
2018-11-29T00:31:31.294Z,1010.14
2018-11-29T00:31:57.399Z,1010.11
2018-11-29T00:32:23.510Z,1010.08
2018-11-29T00:32:49.611Z,1010.11
2018-11-29T00:33:15.741Z,1010.13
2018-11-29T00:33:41.882Z,1010.16
2018-11-29T00:34:08.015Z,1010.13
2018-11-29T00:34:34.121Z,1010.17
2018-11-29T00:35:00.227Z,1010.18
2018-11-29T00:35:26.338Z,1010.11
2018-11-29T00:35:52.524Z,1010.13
2018-11-29T00:36:18.630Z,1010.12
2018-11-29T00:36:44.743Z,1010.17
2018-11-29T00:37:10.848Z,1010.16
2018-11-29T00:37:36.950Z,1010.16
2018-11-29T00:38:03.056Z,1010.17
2018-11-29T00:38:29.167Z,1010.21
2018-11-29T00:38:55.272Z,1010.18
2018-11-29T00:39:21.378Z,1010.18
2018-11-29T00:39:47.485Z,1010.18
2018-11-29T00:40:13.588Z,1010.12
2018-11-29T00:40:39.696Z,1010.14
2018-11-29T00:41:05.798Z,1010.23
2018-11-29T00:41:31.906Z,1010.18
2018-11-29T00:41:58.011Z,1010.16
2018-11-29T00:42:24.123Z,1010.15
2018-11-29T00:42:50.225Z,1010.19
2018-11-29T00:43:16.339Z,1010.13
2018-11-29T00:43:42.445Z,1010.13
2018-11-29T00:44:08.553Z,1010.15
2018-11-29T00:44:34.659Z,1010.15
2018-11-29T00:45:00.795Z,1010.14
2018-11-29T00:45:26.900Z,1010.14
2018-11-29T00:45:53.003Z,1010.17
2018-11-29T00:46:19.101Z,1010.17
2018-11-29T00:46:45.206Z,1010.16
2018-11-29T00:47:11.319Z,1010.16
2018-11-29T00:47:37.474Z,1010.19
2018-11-29T00:48:03.525Z,1010.19
2018-11-29T00:48:29.630Z,1010.23
2018-11-29T00:48:55.742Z,1010.26
2018-11-29T00:49:21.841Z,1010.22
2018-11-29T00:49:47.946Z,1010.23
2018-11-29T00:50:14.067Z,1010.23
2018-11-29T00:50:40.162Z,1010.24
2018-11-29T00:51:06.275Z,1010.24
2018-11-29T00:51:32.377Z,1010.23
2018-11-29T00:51:58.510Z,1010.22
2018-11-29T00:52:24.618Z,1010.26
2018-11-29T00:52:50.749Z,1010.25
2018-11-29T00:53:16.857Z,1010.25
2018-11-29T00:53:42.989Z,1010.27
2018-11-29T00:54:09.093Z,1010.24
2018-11-29T00:54:35.201Z,1010.26
2018-11-29T00:55:01.302Z,1010.17
2018-11-29T00:55:27.408Z,1010.17
2018-11-29T00:55:53.513Z,1010.21
2018-11-29T00:56:19.652Z,1010.25
2018-11-29T00:56:45.755Z,1010.21
2018-11-29T00:57:11.867Z,1010.2
2018-11-29T00:57:37.978Z,1010.24
2018-11-29T00:58:04.083Z,1010.23
2018-11-29T00:58:30.183Z,1010.24
2018-11-29T00:58:56.288Z,1010.22
2018-11-29T00:59:22.387Z,1010.2
2018-11-29T00:59:48.496Z,1010.26
2018-11-29T01:00:14.602Z,1010.26
2018-11-29T01:00:40.707Z,1010.2
2018-11-29T01:01:06.811Z,1010.22
2018-11-29T01:01:32.914Z,1010.19
2018-11-29T01:01:59.018Z,1010.17
2018-11-29T01:02:25.126Z,1010.17
2018-11-29T01:02:51.242Z,1010.19
2018-11-29T01:03:17.348Z,1010.14
2018-11-29T01:03:43.451Z,1010.12
2018-11-29T01:04:09.578Z,1010.08
2018-11-29T01:04:35.678Z,1010.1
2018-11-29T01:05:01.790Z,1010.08
2018-11-29T01:05:27.924Z,1010.11
2018-11-29T01:05:54.028Z,1010.04
2018-11-29T01:06:20.139Z,1010.05
2018-11-29T01:06:46.236Z,1010.03
2018-11-29T01:07:12.350Z,1010.06
2018-11-29T01:07:38.452Z,1010.07
2018-11-29T01:08:04.558Z,1010.03
2018-11-29T01:08:30.699Z,1010.07
2018-11-29T01:08:56.802Z,1010.05
2018-11-29T01:09:23.896Z,1010.03
2018-11-29T01:09:50.027Z,1010.1
2018-11-29T01:10:16.136Z,1010.07
2018-11-29T01:10:42.245Z,1010.07
2018-11-29T01:11:08.342Z,1010.08
2018-11-29T01:11:34.470Z,1010.08
2018-11-29T01:12:00.578Z,1010.07
2018-11-29T01:12:26.680Z,1010.03
2018-11-29T01:12:52.792Z,1010.06
2018-11-29T01:13:18.922Z,1010.04
2018-11-29T01:13:45.031Z,1010.04
2018-11-29T01:14:11.130Z,1010.04
2018-11-29T01:14:37.242Z,1010.07
2018-11-29T01:15:03.353Z,1010.04
2018-11-29T01:15:29.458Z,1010.07
2018-11-29T01:15:55.557Z,1010.11
2018-11-29T01:16:21.670Z,1010.03
2018-11-29T01:16:47.770Z,1010.07
2018-11-29T01:17:13.883Z,1010.06
2018-11-29T01:17:39.995Z,1010.04
2018-11-29T01:18:06.121Z,1010.11
2018-11-29T01:18:32.229Z,1010.13
2018-11-29T01:18:58.331Z,1010.08
2018-11-29T01:19:24.433Z,1010.15
2018-11-29T01:19:50.540Z,1010.08
2018-11-29T01:20:17.255Z,1010.13
2018-11-29T01:20:43.356Z,1010.18
2018-11-29T01:21:09.456Z,1010.1
2018-11-29T01:21:35.563Z,1010.14
2018-11-29T01:22:01.694Z,1010.12
2018-11-29T01:22:27.801Z,1010.18
2018-11-29T01:22:53.905Z,1010.16
2018-11-29T01:23:20.058Z,1010.17
2018-11-29T01:23:46.126Z,1010.14
2018-11-29T01:24:12.231Z,1010.18
2018-11-29T01:24:38.337Z,1010.18
2018-11-29T01:25:04.443Z,1010.18
2018-11-29T01:25:30.582Z,1010.17
2018-11-29T01:25:56.720Z,1010.18
2018-11-29T01:26:22.827Z,1010.21
2018-11-29T01:26:48.932Z,1010.15
2018-11-29T01:27:15.039Z,1010.19
2018-11-29T01:27:41.142Z,1010.19
2018-11-29T01:28:07.247Z,1010.16
2018-11-29T01:28:33.387Z,1010.2
2018-11-29T01:28:59.497Z,1010.16
2018-11-29T01:29:25.598Z,1010.13
2018-11-29T01:29:51.706Z,1010.15
2018-11-29T01:30:17.811Z,1010.16
2018-11-29T01:30:43.919Z,1010.16
2018-11-29T01:31:10.018Z,1010.19
2018-11-29T01:31:36.155Z,1010.15
2018-11-29T01:32:02.259Z,1010.14
2018-11-29T01:32:28.364Z,1010.16
2018-11-29T01:32:54.469Z,1010.17
2018-11-29T01:33:20.597Z,1010.12
2018-11-29T01:33:46.704Z,1010.12
2018-11-29T01:34:12.842Z,1010.16
2018-11-29T01:34:38.944Z,1010.19
2018-11-29T01:35:05.045Z,1010.22
2018-11-29T01:35:31.185Z,1010.21
2018-11-29T01:35:57.322Z,1010.25
2018-11-29T01:36:23.427Z,1010.24
2018-11-29T01:36:49.542Z,1010.23
2018-11-29T01:37:15.671Z,1010.29
2018-11-29T01:37:41.775Z,1010.24
2018-11-29T01:38:07.884Z,1010.24
2018-11-29T01:38:33.980Z,1010.23
2018-11-29T01:39:00.088Z,1010.22
2018-11-29T01:39:26.197Z,1010.19
2018-11-29T01:39:52.303Z,1010.22
2018-11-29T01:40:18.409Z,1010.22
2018-11-29T01:40:44.577Z,1010.22
2018-11-29T01:41:10.691Z,1010.19
2018-11-29T01:41:36.796Z,1010.21
2018-11-29T01:42:02.895Z,1010.18
2018-11-29T01:42:29.006Z,1010.2
2018-11-29T01:42:55.113Z,1010.16
2018-11-29T01:43:21.219Z,1010.13
2018-11-29T01:43:47.365Z,1010.1
2018-11-29T01:44:13.465Z,1010.11
2018-11-29T01:44:39.602Z,1010.08
2018-11-29T01:45:05.708Z,1010.08
2018-11-29T01:45:31.817Z,1010.05
2018-11-29T01:45:57.924Z,1010.08
2018-11-29T01:46:24.030Z,1010.08
2018-11-29T01:46:50.162Z,1010.07
2018-11-29T01:47:16.260Z,1010.04
2018-11-29T01:47:42.368Z,1010.04
2018-11-29T01:48:08.504Z,1010.06
2018-11-29T01:48:34.620Z,1010.05
2018-11-29T01:49:00.727Z,1010.03
2018-11-29T01:49:26.827Z,1010.04
2018-11-29T01:49:52.959Z,1010.02
2018-11-29T01:50:19.064Z,1010.02
2018-11-29T01:50:45.167Z,1010.02
2018-11-29T01:51:11.277Z,1009.98
2018-11-29T01:51:37.383Z,1009.97
2018-11-29T01:52:03.485Z,1010.01
2018-11-29T01:52:29.641Z,1009.97
2018-11-29T01:52:55.775Z,1010.02
2018-11-29T01:53:21.888Z,1010.01
2018-11-29T01:53:47.991Z,1010.02
2018-11-29T01:54:14.090Z,1010.01
2018-11-29T01:54:40.226Z,1009.96
2018-11-29T01:55:09.369Z,1010.01
2018-11-29T01:55:35.505Z,1010
2018-11-29T01:56:01.640Z,1010.02
2018-11-29T01:56:27.742Z,1010.02
2018-11-29T01:56:53.880Z,1010.04
2018-11-29T01:57:19.988Z,1010.03
2018-11-29T01:57:46.087Z,1010.03
2018-11-29T01:58:12.228Z,1010.04
2018-11-29T01:58:38.339Z,1010.04
2018-11-29T01:59:04.444Z,1010.04
2018-11-29T01:59:30.546Z,1010.02
2018-11-29T01:59:56.653Z,1010.04
2018-11-29T02:00:22.757Z,1010
2018-11-29T02:00:48.892Z,1010.06
2018-11-29T02:01:14.996Z,1010.04
2018-11-29T02:01:41.103Z,1010.01
2018-11-29T02:02:07.223Z,1010.03
2018-11-29T02:02:33.336Z,1010
2018-11-29T02:02:59.447Z,1010.02
2018-11-29T02:03:25.598Z,1010.04
2018-11-29T02:03:51.677Z,1010.03
2018-11-29T02:04:17.779Z,1009.99
2018-11-29T02:04:43.890Z,1010.04
2018-11-29T02:05:10.028Z,1010.04
2018-11-29T02:05:36.154Z,1010.03
2018-11-29T02:06:02.263Z,1010.07
2018-11-29T02:06:28.374Z,1010.03
2018-11-29T02:06:54.480Z,1010.01
2018-11-29T02:07:20.589Z,1009.95
2018-11-29T02:07:46.693Z,1009.95
2018-11-29T02:08:12.803Z,1009.96
2018-11-29T02:08:38.906Z,1009.97
2018-11-29T02:09:05.010Z,1009.93
2018-11-29T02:09:31.117Z,1009.99
2018-11-29T02:09:57.229Z,1010
2018-11-29T02:10:23.330Z,1009.91
2018-11-29T02:10:49.435Z,1009.94
2018-11-29T02:11:15.547Z,1009.92
2018-11-29T02:11:41.654Z,1009.89
2018-11-29T02:12:07.762Z,1009.94
2018-11-29T02:12:33.861Z,1009.93
2018-11-29T02:12:59.968Z,1009.93
2018-11-29T02:13:26.082Z,1009.94
2018-11-29T02:13:52.183Z,1009.94
2018-11-29T02:14:18.287Z,1009.97
2018-11-29T02:14:44.401Z,1009.99
2018-11-29T02:15:10.505Z,1010
2018-11-29T02:15:36.610Z,1010.01
2018-11-29T02:16:02.714Z,1010
2018-11-29T02:16:28.848Z,1009.97
2018-11-29T02:16:54.948Z,1010.02
2018-11-29T02:17:21.060Z,1010
2018-11-29T02:17:47.173Z,1010.02
2018-11-29T02:18:13.274Z,1010
2018-11-29T02:18:39.384Z,1010.05
2018-11-29T02:19:05.493Z,1010.03
2018-11-29T02:19:31.622Z,1010.02
2018-11-29T02:19:57.724Z,1010.02
2018-11-29T02:20:23.858Z,1010.01
2018-11-29T02:20:49.965Z,1009.99
2018-11-29T02:21:16.072Z,1009.98
2018-11-29T02:21:42.571Z,1010.02
2018-11-29T02:22:08.683Z,1010.02
2018-11-29T02:22:34.788Z,1010.02
2018-11-29T02:23:00.893Z,1010.05
2018-11-29T02:23:26.999Z,1010.01
2018-11-29T02:23:53.110Z,1010
2018-11-29T02:24:19.212Z,1010.02
2018-11-29T02:24:45.309Z,1009.97
2018-11-29T02:25:11.414Z,1009.96
2018-11-29T02:25:37.520Z,1009.99
2018-11-29T02:26:03.626Z,1009.95
2018-11-29T02:26:29.725Z,1009.95
2018-11-29T02:26:55.835Z,1009.96
2018-11-29T02:27:21.943Z,1009.92
2018-11-29T02:27:48.050Z,1009.93
2018-11-29T02:28:14.151Z,1009.93
2018-11-29T02:28:40.263Z,1009.93
2018-11-29T02:29:06.371Z,1009.98
2018-11-29T02:29:32.471Z,1009.93
2018-11-29T02:29:58.580Z,1009.92
2018-11-29T02:30:24.745Z,1009.87
2018-11-29T02:30:50.879Z,1009.89
2018-11-29T02:31:16.983Z,1009.88
2018-11-29T02:31:43.092Z,1009.86
2018-11-29T02:32:09.225Z,1009.83
2018-11-29T02:32:35.357Z,1009.85
2018-11-29T02:33:01.460Z,1009.88
2018-11-29T02:33:27.559Z,1009.78
2018-11-29T02:33:53.720Z,1009.8
2018-11-29T02:34:19.851Z,1009.82
2018-11-29T02:34:45.960Z,1009.81
2018-11-29T02:35:12.067Z,1009.82
2018-11-29T02:35:38.174Z,1009.81
2018-11-29T02:36:04.278Z,1009.81
2018-11-29T02:36:30.378Z,1009.8
2018-11-29T02:36:56.483Z,1009.82
2018-11-29T02:37:22.613Z,1009.83
2018-11-29T02:37:48.775Z,1009.85
2018-11-29T02:38:14.884Z,1009.84
2018-11-29T02:38:40.987Z,1009.81
2018-11-29T02:39:07.154Z,1009.85
2018-11-29T02:39:33.263Z,1009.89
2018-11-29T02:39:59.367Z,1009.87
2018-11-29T02:40:25.473Z,1009.86
2018-11-29T02:40:51.622Z,1009.9
2018-11-29T02:41:17.749Z,1009.89
2018-11-29T02:41:43.856Z,1009.91
2018-11-29T02:42:09.957Z,1009.91
2018-11-29T02:42:36.102Z,1009.87
2018-11-29T02:43:02.233Z,1009.88
2018-11-29T02:43:28.368Z,1009.92
2018-11-29T02:43:54.501Z,1009.91
2018-11-29T02:44:20.637Z,1009.93
2018-11-29T02:44:46.745Z,1009.9
2018-11-29T02:45:12.849Z,1009.89
2018-11-29T02:45:38.983Z,1009.92
2018-11-29T02:46:05.087Z,1009.89
2018-11-29T02:46:31.220Z,1009.84
2018-11-29T02:46:57.323Z,1009.83
2018-11-29T02:47:23.494Z,1009.83
2018-11-29T02:47:49.614Z,1009.82
2018-11-29T02:48:15.722Z,1009.81
2018-11-29T02:48:41.854Z,1009.82
2018-11-29T02:49:07.953Z,1009.84
2018-11-29T02:49:34.063Z,1009.82
2018-11-29T02:50:00.187Z,1009.78
2018-11-29T02:50:26.273Z,1009.86
2018-11-29T02:50:52.380Z,1009.84
2018-11-29T02:51:18.489Z,1009.78
2018-11-29T02:51:44.602Z,1009.73
2018-11-29T02:52:10.727Z,1009.78
2018-11-29T02:52:36.838Z,1009.78
2018-11-29T02:53:02.942Z,1009.76
2018-11-29T02:53:29.050Z,1009.76
2018-11-29T02:53:55.206Z,1009.79
2018-11-29T02:54:21.318Z,1009.73
2018-11-29T02:54:47.427Z,1009.77
2018-11-29T02:55:13.539Z,1009.73
2018-11-29T02:55:39.636Z,1009.7
2018-11-29T02:56:05.747Z,1009.72
2018-11-29T02:56:31.844Z,1009.76
2018-11-29T02:56:57.949Z,1009.76
2018-11-29T02:57:24.054Z,1009.72
2018-11-29T02:57:50.190Z,1009.72
2018-11-29T02:58:16.294Z,1009.71
2018-11-29T02:58:42.404Z,1009.7
2018-11-29T02:59:08.540Z,1009.69
2018-11-29T02:59:34.688Z,1009.66
2018-11-29T03:00:00.816Z,1009.68
2018-11-29T03:00:26.922Z,1009.68
2018-11-29T03:00:53.032Z,1009.67
2018-11-29T03:01:19.166Z,1009.64
2018-11-29T03:01:45.272Z,1009.64
2018-11-29T03:02:11.381Z,1009.67
2018-11-29T03:02:37.485Z,1009.68
2018-11-29T03:03:03.613Z,1009.69
2018-11-29T03:03:29.782Z,1009.69
2018-11-29T03:03:55.889Z,1009.63
2018-11-29T03:04:21.991Z,1009.63
2018-11-29T03:04:48.095Z,1009.66
2018-11-29T03:05:14.209Z,1009.71
2018-11-29T03:05:40.319Z,1009.63
2018-11-29T03:06:06.453Z,1009.6
2018-11-29T03:06:32.568Z,1009.68
2018-11-29T03:06:58.704Z,1009.67
2018-11-29T03:07:24.829Z,1009.73
2018-11-29T03:07:50.993Z,1009.69
2018-11-29T03:08:17.107Z,1009.64
2018-11-29T03:08:43.238Z,1009.65
2018-11-29T03:09:09.346Z,1009.63
2018-11-29T03:09:35.474Z,1009.63
2018-11-29T03:10:01.584Z,1009.66
2018-11-29T03:10:27.709Z,1009.68
2018-11-29T03:10:53.817Z,1009.65
2018-11-29T03:11:19.919Z,1009.68
2018-11-29T03:11:46.017Z,1009.65
2018-11-29T03:12:12.125Z,1009.65
2018-11-29T03:12:38.269Z,1009.6
2018-11-29T03:13:04.395Z,1009.58
2018-11-29T03:13:30.500Z,1009.61
2018-11-29T03:13:56.607Z,1009.6
2018-11-29T03:14:22.715Z,1009.59
2018-11-29T03:14:48.816Z,1009.61
2018-11-29T03:15:14.926Z,1009.66
2018-11-29T03:15:41.077Z,1009.64
2018-11-29T03:16:07.218Z,1009.53
2018-11-29T03:16:33.343Z,1009.57
2018-11-29T03:16:59.453Z,1009.62
2018-11-29T03:17:25.582Z,1009.55
2018-11-29T03:17:51.748Z,1009.6
2018-11-29T03:18:17.879Z,1009.59
2018-11-29T03:18:44.016Z,1009.59
2018-11-29T03:19:10.148Z,1009.53
2018-11-29T03:19:36.307Z,1009.56
2018-11-29T03:20:02.413Z,1009.56
2018-11-29T03:20:28.559Z,1009.56
2018-11-29T03:20:54.661Z,1009.58
2018-11-29T03:21:20.815Z,1009.56
2018-11-29T03:21:46.925Z,1009.58
2018-11-29T03:22:13.029Z,1009.59
2018-11-29T03:22:39.146Z,1009.56
2018-11-29T03:23:05.275Z,1009.6
2018-11-29T03:23:31.384Z,1009.57
2018-11-29T03:23:57.540Z,1009.58
2018-11-29T03:24:23.677Z,1009.59
2018-11-29T03:24:49.877Z,1009.62
2018-11-29T03:25:15.993Z,1009.55
2018-11-29T03:25:42.148Z,1009.56
2018-11-29T03:26:08.309Z,1009.53
2018-11-29T03:26:34.436Z,1009.53
2018-11-29T03:27:00.572Z,1009.58
2018-11-29T03:27:26.736Z,1009.54
2018-11-29T03:27:52.927Z,1009.52
2018-11-29T03:28:19.029Z,1009.59
2018-11-29T03:28:45.437Z,1009.6
2018-11-29T03:29:11.546Z,1009.53
2018-11-29T03:29:37.644Z,1009.54
2018-11-29T03:30:03.791Z,1009.6
2018-11-29T03:30:29.943Z,1009.56
2018-11-29T03:30:56.105Z,1009.56
2018-11-29T03:31:22.234Z,1009.54
2018-11-29T03:31:48.459Z,1009.57
2018-11-29T03:32:14.631Z,1009.56
2018-11-29T03:32:40.783Z,1009.54
2018-11-29T03:33:06.897Z,1009.56
2018-11-29T03:33:33.049Z,1009.57
2018-11-29T03:33:59.220Z,1009.58
2018-11-29T03:34:25.322Z,1009.56
2018-11-29T03:34:51.425Z,1009.53
2018-11-29T03:35:17.538Z,1009.55
2018-11-29T03:35:44.563Z,1009.64
2018-11-29T03:36:10.731Z,1009.58
2018-11-29T03:36:36.845Z,1009.57
2018-11-29T03:37:02.946Z,1009.55
2018-11-29T03:37:29.059Z,1009.57
2018-11-29T03:37:55.192Z,1009.56
2018-11-29T03:38:21.320Z,1009.54
2018-11-29T03:38:47.424Z,1009.51
2018-11-29T03:39:13.534Z,1009.51
2018-11-29T03:39:39.645Z,1009.54
2018-11-29T03:40:05.748Z,1009.56
2018-11-29T03:40:31.853Z,1009.55
2018-11-29T03:40:57.993Z,1009.55
2018-11-29T03:41:24.104Z,1009.55
2018-11-29T03:41:50.208Z,1009.58
2018-11-29T03:42:16.321Z,1009.59
2018-11-29T03:42:42.458Z,1009.52
2018-11-29T03:43:08.596Z,1009.58
2018-11-29T03:43:34.725Z,1009.58
2018-11-29T03:44:00.831Z,1009.51
2018-11-29T03:44:26.970Z,1009.56
2018-11-29T03:44:53.077Z,1009.53
2018-11-29T03:45:19.214Z,1009.54
2018-11-29T03:45:45.318Z,1009.56
2018-11-29T03:46:11.421Z,1009.59
2018-11-29T03:46:37.557Z,1009.54
2018-11-29T03:47:03.701Z,1009.59
2018-11-29T03:47:29.833Z,1009.61
2018-11-29T03:47:56.002Z,1009.59
2018-11-29T03:48:22.129Z,1009.6
2018-11-29T03:48:48.238Z,1009.61
2018-11-29T03:49:14.374Z,1009.64
2018-11-29T03:49:40.483Z,1009.63
2018-11-29T03:50:06.591Z,1009.61
2018-11-29T03:50:32.727Z,1009.59
2018-11-29T03:50:58.862Z,1009.61
2018-11-29T03:51:24.992Z,1009.55
2018-11-29T03:51:51.123Z,1009.6
2018-11-29T03:52:17.266Z,1009.61
2018-11-29T03:52:43.400Z,1009.56
2018-11-29T03:53:09.504Z,1009.59
2018-11-29T03:53:35.604Z,1009.63
2018-11-29T03:54:01.715Z,1009.63
2018-11-29T03:54:27.849Z,1009.59
2018-11-29T03:54:53.970Z,1009.62
2018-11-29T03:55:20.078Z,1009.64
2018-11-29T03:55:46.183Z,1009.6
2018-11-29T03:56:12.292Z,1009.62
2018-11-29T03:56:38.402Z,1009.58
2018-11-29T03:57:04.502Z,1009.58
2018-11-29T03:57:30.602Z,1009.61
2018-11-29T03:57:56.706Z,1009.56
2018-11-29T03:58:22.812Z,1009.58
2018-11-29T03:58:48.917Z,1009.62
2018-11-29T03:59:15.060Z,1009.57
2018-11-29T03:59:41.162Z,1009.59
2018-11-29T04:00:07.270Z,1009.52
2018-11-29T04:00:33.379Z,1009.54
2018-11-29T04:00:59.487Z,1009.57
2018-11-29T04:01:25.599Z,1009.56
2018-11-29T04:01:51.712Z,1009.6
2018-11-29T04:02:17.839Z,1009.63
2018-11-29T04:02:43.945Z,1009.63
2018-11-29T04:03:10.088Z,1009.63
2018-11-29T04:03:36.189Z,1009.6
2018-11-29T04:04:02.321Z,1009.6
2018-11-29T04:04:28.425Z,1009.58
2018-11-29T04:04:54.571Z,1009.54
2018-11-29T04:05:20.735Z,1009.6
2018-11-29T04:05:46.840Z,1009.54
2018-11-29T04:06:12.944Z,1009.56
2018-11-29T04:06:39.052Z,1009.51
2018-11-29T04:07:05.191Z,1009.55
2018-11-29T04:07:31.287Z,1009.53
2018-11-29T04:07:57.395Z,1009.52
2018-11-29T04:08:23.502Z,1009.53
2018-11-29T04:08:49.610Z,1009.59
2018-11-29T04:09:15.716Z,1009.52
2018-11-29T04:09:41.850Z,1009.55
2018-11-29T04:10:07.984Z,1009.55
2018-11-29T04:10:34.100Z,1009.51
2018-11-29T04:11:00.202Z,1009.51
2018-11-29T04:11:26.315Z,1009.53
2018-11-29T04:11:52.421Z,1009.47
2018-11-29T04:12:18.582Z,1009.49
2018-11-29T04:12:44.775Z,1009.45
2018-11-29T04:13:10.882Z,1009.48
2018-11-29T04:13:37.033Z,1009.49
2018-11-29T04:14:03.186Z,1009.5
2018-11-29T04:14:29.289Z,1009.45
2018-11-29T04:14:55.427Z,1009.49
2018-11-29T04:15:21.560Z,1009.5
2018-11-29T04:15:47.658Z,1009.52
2018-11-29T04:16:13.762Z,1009.46
2018-11-29T04:16:39.899Z,1009.5
2018-11-29T04:17:05.998Z,1009.49
2018-11-29T04:17:32.109Z,1009.44
2018-11-29T04:17:59.206Z,1009.44
2018-11-29T04:18:25.316Z,1009.47
2018-11-29T04:18:51.448Z,1009.45
2018-11-29T04:19:17.612Z,1009.46
2018-11-29T04:19:43.717Z,1009.48
2018-11-29T04:20:09.822Z,1009.48
2018-11-29T04:20:35.952Z,1009.48
2018-11-29T04:21:02.050Z,1009.46
2018-11-29T04:21:28.160Z,1009.49
2018-11-29T04:21:54.270Z,1009.49
2018-11-29T04:22:20.372Z,1009.51
2018-11-29T04:22:46.513Z,1009.51
2018-11-29T04:23:12.610Z,1009.5
2018-11-29T04:23:38.712Z,1009.46
2018-11-29T04:24:04.866Z,1009.46
2018-11-29T04:24:30.970Z,1009.47
2018-11-29T04:24:57.110Z,1009.47
2018-11-29T04:25:23.217Z,1009.44
2018-11-29T04:25:49.355Z,1009.44
2018-11-29T04:26:15.510Z,1009.45
2018-11-29T04:26:41.620Z,1009.42
2018-11-29T04:27:07.755Z,1009.46
2018-11-29T04:27:33.870Z,1009.41
2018-11-29T04:27:59.978Z,1009.42
2018-11-29T04:28:26.088Z,1009.4
2018-11-29T04:28:52.188Z,1009.37
2018-11-29T04:29:18.315Z,1009.4
2018-11-29T04:29:44.451Z,1009.44
2018-11-29T04:30:10.550Z,1009.35
2018-11-29T04:30:36.670Z,1009.35
2018-11-29T04:31:02.770Z,1009.37
2018-11-29T04:31:28.875Z,1009.34
2018-11-29T04:31:55.026Z,1009.37
2018-11-29T04:32:21.143Z,1009.39
2018-11-29T04:32:47.278Z,1009.39
2018-11-29T04:33:14.279Z,1009.44
2018-11-29T04:33:40.416Z,1009.35
2018-11-29T04:34:06.517Z,1009.37
2018-11-29T04:34:32.676Z,1009.38
2018-11-29T04:34:58.846Z,1009.4
2018-11-29T04:35:24.980Z,1009.4
2018-11-29T04:35:51.124Z,1009.4
2018-11-29T04:36:17.259Z,1009.38
2018-11-29T04:36:43.390Z,1009.42
2018-11-29T04:37:09.528Z,1009.39
2018-11-29T04:37:35.629Z,1009.44
2018-11-29T04:38:01.732Z,1009.43
2018-11-29T04:38:27.840Z,1009.43
2018-11-29T04:38:53.946Z,1009.44
2018-11-29T04:39:20.114Z,1009.41
2018-11-29T04:39:46.223Z,1009.4
2018-11-29T04:40:12.354Z,1009.43
2018-11-29T04:40:38.456Z,1009.46
2018-11-29T04:41:04.570Z,1009.42
2018-11-29T04:41:30.737Z,1009.41
2018-11-29T04:41:56.872Z,1009.39
2018-11-29T04:42:22.973Z,1009.46
2018-11-29T04:42:49.078Z,1009.46
2018-11-29T04:43:15.216Z,1009.46
2018-11-29T04:43:41.351Z,1009.46
2018-11-29T04:44:07.537Z,1009.51
2018-11-29T04:44:33.643Z,1009.56
2018-11-29T04:44:59.776Z,1009.47
2018-11-29T04:45:25.914Z,1009.42
2018-11-29T04:45:52.029Z,1009.44
2018-11-29T04:46:18.130Z,1009.43
2018-11-29T04:46:44.241Z,1009.46
2018-11-29T04:47:10.402Z,1009.47
2018-11-29T04:47:36.501Z,1009.39
2018-11-29T04:48:02.606Z,1009.42
2018-11-29T04:48:29.762Z,1009.41
2018-11-29T04:48:55.902Z,1009.45
2018-11-29T04:49:22.012Z,1009.5
2018-11-29T04:49:48.115Z,1009.37
2018-11-29T04:50:14.255Z,1009.4
2018-11-29T04:50:40.393Z,1009.39
2018-11-29T04:51:06.497Z,1009.43
2018-11-29T04:51:32.603Z,1009.4
2018-11-29T04:51:58.766Z,1009.4
2018-11-29T04:52:24.874Z,1009.45
2018-11-29T04:52:50.976Z,1009.37
2018-11-29T04:53:17.085Z,1009.36
2018-11-29T04:53:43.219Z,1009.38
2018-11-29T04:54:09.384Z,1009.39
2018-11-29T04:54:35.551Z,1009.35
2018-11-29T04:55:01.666Z,1009.43
2018-11-29T04:55:27.769Z,1009.34
2018-11-29T04:55:53.879Z,1009.31
2018-11-29T04:56:20.011Z,1009.36
2018-11-29T04:56:46.144Z,1009.32
2018-11-29T04:57:12.253Z,1009.38
2018-11-29T04:57:38.360Z,1009.33
2018-11-29T04:58:04.465Z,1009.34
2018-11-29T04:58:30.571Z,1009.26
2018-11-29T04:58:56.683Z,1009.26
2018-11-29T04:59:22.784Z,1009.3
2018-11-29T04:59:48.925Z,1009.29
2018-11-29T05:00:15.026Z,1009.32
2018-11-29T05:00:41.136Z,1009.28
2018-11-29T05:01:07.269Z,1009.27
2018-11-29T05:01:33.395Z,1009.27
2018-11-29T05:01:59.534Z,1009.22
2018-11-29T05:02:25.670Z,1009.21
2018-11-29T05:02:52.080Z,1009.32
2018-11-29T05:03:18.179Z,1009.33
2018-11-29T05:03:44.289Z,1009.25
2018-11-29T05:04:10.397Z,1009.24
2018-11-29T05:04:36.503Z,1009.22
2018-11-29T05:05:02.663Z,1009.22
2018-11-29T05:05:28.770Z,1009.2
2018-11-29T05:05:54.878Z,1009.21
2018-11-29T05:06:20.984Z,1009.21
2018-11-29T05:06:47.124Z,1009.23
2018-11-29T05:07:13.255Z,1009.21
2018-11-29T05:07:39.363Z,1009.23
2018-11-29T05:08:05.486Z,1009.18
2018-11-29T05:08:31.595Z,1009.36
2018-11-29T05:08:57.725Z,1009.26
2018-11-29T05:09:23.826Z,1009.22
2018-11-29T05:09:49.940Z,1009.22
2018-11-29T05:10:16.107Z,1009.13
2018-11-29T05:10:42.203Z,1009.16
2018-11-29T05:11:08.314Z,1009.17
2018-11-29T05:11:34.481Z,1009.17
2018-11-29T05:12:00.614Z,1009.19
2018-11-29T05:12:26.721Z,1009.19
2018-11-29T05:12:52.821Z,1009.2
2018-11-29T05:13:18.961Z,1009.16
2018-11-29T05:13:45.070Z,1009.18
2018-11-29T05:14:11.206Z,1009.17
2018-11-29T05:14:37.309Z,1009.15
2018-11-29T05:15:03.412Z,1009.16
2018-11-29T05:15:29.518Z,1009.14
2018-11-29T05:15:55.686Z,1009.17
2018-11-29T05:16:21.829Z,1009.18
2018-11-29T05:16:47.931Z,1009.18
2018-11-29T05:17:14.068Z,1009.18